sensor_id;sensor_type;location;lat;lon;timestamp;P1;durP1;ratioP1;P2;durP2;ratioP2
21814;SDS011;11069;48.988;8.450;2022-10-16T17:02:55;13.55;;;5.68;;
21814;SDS011;11069;48.988;8.450;2022-10-16T17:05:22;7.93;;;5.40;;
21814;SDS011;11069;48.988;8.450;2022-10-16T17:07:48;16.75;;;6.93;;
21814;SDS011;11069;48.988;8.450;2022-10-16T17:10:13;10.07;;;5.63;;
21814;SDS011;11069;48.988;8.450;2022-10-16T17:12:39;9.00;;;5.78;;
21814;SDS011;11069;48.988;8.450;2022-10-16T17:15:05;11.98;;;6.30;;
21814;SDS011;11069;48.988;8.450;2022-10-16T17:17:31;9.43;;;6.15;;
21814;SDS011;11069;48.988;8.450;2022-10-16T17:19:57;17.20;;;6.38;;
21814;SDS011;11069;48.988;8.450;2022-10-16T17:22:23;12.98;;;5.70;;
21814;SDS011;11069;48.988;8.450;2022-10-16T17:24:48;9.00;;;6.43;;
21814;SDS011;11069;48.988;8.450;2022-10-16T17:27:16;12.73;;;6.50;;
21814;SDS011;11069;48.988;8.450;2022-10-16T17:29:42;8.70;;;6.10;;
21814;SDS011;11069;48.988;8.450;2022-10-16T17:32:08;8.95;;;6.25;;
21814;SDS011;11069;48.988;8.450;2022-10-16T17:34:34;12.52;;;6.55;;
21814;SDS011;11069;48.988;8.450;2022-10-16T17:37:00;10.93;;;6.38;;
21814;SDS011;11069;48.988;8.450;2022-10-16T17:39:26;14.80;;;6.85;;
21814;SDS011;11069;48.988;8.450;2022-10-16T17:41:51;13.18;;;6.50;;
21814;SDS011;11069;48.988;8.450;2022-10-16T17:44:17;11.93;;;6.25;;
21814;SDS011;11069;48.988;8.450;2022-10-16T17:46:50;11.57;;;6.13;;
21814;SDS011;11069;48.988;8.450;2022-10-16T17:51:43;18.83;;;6.38;;
21814;SDS011;11069;48.988;8.450;2022-10-16T17:54:09;19.20;;;6.85;;
21814;SDS011;11069;48.988;8.450;2022-10-16T17:56:38;16.48;;;6.47;;
21814;SDS011;11069;48.988;8.450;2022-10-16T17:59:04;15.57;;;7.00;;
21814;SDS011;11069;48.988;8.450;2022-10-16T18:01:34;17.13;;;6.70;;
21814;SDS011;11069;48.988;8.450;2022-10-16T18:04:19;18.35;;;6.78;;
21814;SDS011;11069;48.988;8.450;2022-10-16T18:06:45;17.52;;;6.47;;
21814;SDS011;11069;48.988;8.450;2022-10-16T18:09:12;12.48;;;5.93;;
21814;SDS011;11069;48.988;8.450;2022-10-16T18:11:39;8.85;;;6.00;;
21814;SDS011;11069;48.988;8.450;2022-10-16T18:14:05;13.35;;;10.75;;
21814;SDS011;11069;48.988;8.450;2022-10-16T18:16:31;13.45;;;9.90;;
21814;SDS011;11069;48.988;8.450;2022-10-16T18:18:57;16.30;;;10.85;;
21814;SDS011;11069;48.988;8.450;2022-10-16T18:21:23;14.52;;;10.57;;
21814;SDS011;11069;48.988;8.450;2022-10-16T18:23:51;16.52;;;10.57;;
21814;SDS011;11069;48.988;8.450;2022-10-16T18:26:18;16.48;;;11.77;;
21814;SDS011;11069;48.988;8.450;2022-10-16T18:28:44;16.52;;;11.25;;
21814;SDS011;11069;48.988;8.450;2022-10-16T18:31:11;14.88;;;8.70;;
21814;SDS011;11069;48.988;8.450;2022-10-16T18:33:41;11.00;;;7.25;;
21814;SDS011;11069;48.988;8.450;2022-10-16T18:38:37;12.30;;;6.82;;
21814;SDS011;11069;48.988;8.450;2022-10-16T18:41:03;13.75;;;6.90;;
21814;SDS011;11069;48.988;8.450;2022-10-16T18:43:32;13.70;;;6.68;;
21814;SDS011;11069;48.988;8.450;2022-10-16T18:46:03;9.85;;;6.80;;
21814;SDS011;11069;48.988;8.450;2022-10-16T18:48:34;17.35;;;6.30;;
21814;SDS011;11069;48.988;8.450;2022-10-16T18:51:19;10.02;;;5.63;;
21814;SDS011;11069;48.988;8.450;2022-10-16T18:53:46;8.57;;;5.43;;
21814;SDS011;11069;48.988;8.450;2022-10-16T18:56:14;9.57;;;5.43;;
21814;SDS011;11069;48.988;8.450;2022-10-16T18:58:41;9.13;;;4.75;;
21814;SDS011;11069;48.988;8.450;2022-10-16T19:01:09;9.82;;;5.22;;
21814;SDS011;11069;48.988;8.450;2022-10-16T19:03:37;7.93;;;4.72;;
21814;SDS011;11069;48.988;8.450;2022-10-16T19:06:04;10.30;;;4.65;;
21814;SDS011;11069;48.988;8.450;2022-10-16T19:08:32;6.65;;;4.13;;
21814;SDS011;11069;48.988;8.450;2022-10-16T19:11:17;5.20;;;4.25;;
21814;SDS011;11069;48.988;8.450;2022-10-16T19:13:46;6.10;;;4.10;;
21814;SDS011;11069;48.988;8.450;2022-10-16T19:16:13;8.88;;;4.20;;
21814;SDS011;11069;48.988;8.450;2022-10-16T19:18:41;9.15;;;4.30;;
21814;SDS011;11069;48.988;8.450;2022-10-16T19:21:10;9.52;;;4.03;;
21814;SDS011;11069;48.988;8.450;2022-10-16T19:23:37;5.10;;;3.78;;
21814;SDS011;11069;48.988;8.450;2022-10-16T19:26:04;12.05;;;4.45;;
21814;SDS011;11069;48.988;8.450;2022-10-16T19:28:32;9.50;;;6.32;;
21814;SDS011;11069;48.988;8.450;2022-10-16T19:31:02;9.65;;;5.35;;
21814;SDS011;11069;48.988;8.450;2022-10-16T19:33:33;11.45;;;5.80;;
21814;SDS011;11069;48.988;8.450;2022-10-16T19:36:18;10.38;;;6.40;;
21814;SDS011;11069;48.988;8.450;2022-10-16T19:38:47;10.07;;;5.40;;
21814;SDS011;11069;48.988;8.450;2022-10-16T19:41:27;9.20;;;4.65;;
21814;SDS011;11069;48.988;8.450;2022-10-16T19:43:53;9.70;;;4.13;;
21814;SDS011;11069;48.988;8.450;2022-10-16T19:46:23;10.20;;;4.10;;
21814;SDS011;11069;48.988;8.450;2022-10-16T19:48:57;7.73;;;4.13;;
21814;SDS011;11069;48.988;8.450;2022-10-16T19:51:25;9.68;;;4.22;;
21814;SDS011;11069;48.988;8.450;2022-10-16T19:53:55;8.57;;;4.50;;
21814;SDS011;11069;48.988;8.450;2022-10-16T19:56:23;6.60;;;3.92;;
21814;SDS011;11069;48.988;8.450;2022-10-16T19:58:50;11.90;;;4.35;;
21814;SDS011;11069;48.988;8.450;2022-10-16T20:01:18;7.03;;;4.45;;
21814;SDS011;11069;48.988;8.450;2022-10-16T20:03:45;14.00;;;3.92;;
21814;SDS011;11069;48.988;8.450;2022-10-16T20:06:12;6.32;;;3.90;;
21814;SDS011;11069;48.988;8.450;2022-10-16T20:08:39;11.45;;;4.20;;
21814;SDS011;11069;48.988;8.450;2022-10-16T20:11:09;10.98;;;4.43;;
21814;SDS011;11069;48.988;8.450;2022-10-16T20:13:37;15.60;;;4.57;;
21814;SDS011;11069;48.988;8.450;2022-10-16T20:16:03;11.18;;;4.75;;
21814;SDS011;11069;48.988;8.450;2022-10-16T20:18:29;15.48;;;5.22;;
21814;SDS011;11069;48.988;8.450;2022-10-16T20:20:54;8.38;;;4.47;;
21814;SDS011;11069;48.988;8.450;2022-10-16T20:23:20;9.15;;;4.88;;
21814;SDS011;11069;48.988;8.450;2022-10-16T20:25:47;7.28;;;4.93;;
21814;SDS011;11069;48.988;8.450;2022-10-16T20:28:14;7.20;;;4.75;;
21814;SDS011;11069;48.988;8.450;2022-10-16T20:30:43;11.18;;;4.90;;
21814;SDS011;11069;48.988;8.450;2022-10-16T20:33:10;9.57;;;4.78;;
21814;SDS011;11069;48.988;8.450;2022-10-16T20:35:37;9.05;;;4.88;;
21814;SDS011;11069;48.988;8.450;2022-10-16T20:38:05;9.13;;;4.75;;
21814;SDS011;11069;48.988;8.450;2022-10-16T20:40:38;11.18;;;5.00;;
21814;SDS011;11069;48.988;8.450;2022-10-16T20:43:06;10.77;;;4.63;;
21814;SDS011;11069;48.988;8.450;2022-10-16T20:45:32;11.52;;;4.60;;
21814;SDS011;11069;48.988;8.450;2022-10-16T20:47:57;8.43;;;4.57;;
21814;SDS011;11069;48.988;8.450;2022-10-16T20:50:23;23.38;;;5.60;;
21814;SDS011;11069;48.988;8.450;2022-10-16T20:52:52;10.70;;;4.97;;
21814;SDS011;11069;48.988;8.450;2022-10-16T20:55:18;15.88;;;5.60;;
21814;SDS011;11069;48.988;8.450;2022-10-16T20:57:44;12.10;;;5.28;;
21814;SDS011;11069;48.988;8.450;2022-10-16T21:00:09;15.15;;;5.70;;
21814;SDS011;11069;48.988;8.450;2022-10-16T21:02:39;8.50;;;5.25;;
21814;SDS011;11069;48.988;8.450;2022-10-16T21:05:10;17.00;;;5.75;;
21814;SDS011;11069;48.988;8.450;2022-10-16T21:07:36;13.25;;;5.70;;
21814;SDS011;11069;48.988;8.450;2022-10-16T21:10:02;15.15;;;6.30;;
21814;SDS011;11069;48.988;8.450;2022-10-16T21:12:29;18.75;;;5.97;;
21814;SDS011;11069;48.988;8.450;2022-10-16T21:14:54;23.08;;;6.22;;
21814;SDS011;11069;48.988;8.450;2022-10-16T21:17:20;15.73;;;5.97;;
21814;SDS011;11069;48.988;8.450;2022-10-16T21:19:45;25.77;;;6.90;;
21814;SDS011;11069;48.988;8.450;2022-10-16T21:22:11;23.42;;;5.57;;
21814;SDS011;11069;48.988;8.450;2022-10-16T21:24:37;19.83;;;6.25;;
21814;SDS011;11069;48.988;8.450;2022-10-16T21:27:04;11.80;;;5.85;;
21814;SDS011;11069;48.988;8.450;2022-10-16T21:29:30;13.00;;;6.43;;
21814;SDS011;11069;48.988;8.450;2022-10-16T21:31:56;16.95;;;6.38;;
21814;SDS011;11069;48.988;8.450;2022-10-16T21:34:22;16.40;;;6.43;;
21814;SDS011;11069;48.988;8.450;2022-10-16T21:36:47;12.02;;;6.93;;
21814;SDS011;11069;48.988;8.450;2022-10-16T21:39:14;19.67;;;6.93;;
21814;SDS011;11069;48.988;8.450;2022-10-16T21:41:42;14.15;;;6.45;;
21814;SDS011;11069;48.988;8.450;2022-10-16T21:44:09;13.15;;;6.07;;
21814;SDS011;11069;48.988;8.450;2022-10-16T21:46:36;12.57;;;6.50;;
21814;SDS011;11069;48.988;8.450;2022-10-16T21:49:04;11.85;;;7.00;;
21814;SDS011;11069;48.988;8.450;2022-10-16T21:51:39;23.13;;;7.45;;
21814;SDS011;11069;48.988;8.450;2022-10-16T21:54:08;15.45;;;6.82;;
21814;SDS011;11069;48.988;8.450;2022-10-16T21:56:36;14.45;;;7.47;;
21814;SDS011;11069;48.988;8.450;2022-10-16T21:59:02;17.88;;;7.00;;
21814;SDS011;11069;48.988;8.450;2022-10-16T22:01:29;13.02;;;6.82;;
21814;SDS011;11069;48.988;8.450;2022-10-16T22:03:55;10.60;;;6.53;;
21814;SDS011;11069;48.988;8.450;2022-10-16T22:06:22;12.70;;;6.82;;
21814;SDS011;11069;48.988;8.450;2022-10-16T22:08:50;14.00;;;6.55;;
21814;SDS011;11069;48.988;8.450;2022-10-16T22:11:20;17.33;;;7.47;;
21814;SDS011;11069;48.988;8.450;2022-10-16T22:13:51;13.50;;;7.53;;
21814;SDS011;11069;48.988;8.450;2022-10-16T22:16:20;9.38;;;6.63;;
21814;SDS011;11069;48.988;8.450;2022-10-16T22:18:46;18.50;;;7.03;;
21814;SDS011;11069;48.988;8.450;2022-10-16T22:21:14;13.65;;;7.30;;
21814;SDS011;11069;48.988;8.450;2022-10-16T22:23:40;12.18;;;6.85;;
21814;SDS011;11069;48.988;8.450;2022-10-16T22:26:07;13.20;;;6.85;;
21814;SDS011;11069;48.988;8.450;2022-10-16T22:28:34;14.43;;;6.82;;
21814;SDS011;11069;48.988;8.450;2022-10-16T22:31:01;14.25;;;7.10;;
21814;SDS011;11069;48.988;8.450;2022-10-16T22:33:28;10.70;;;7.00;;
21814;SDS011;11069;48.988;8.450;2022-10-16T22:35:54;16.33;;;7.22;;
21814;SDS011;11069;48.988;8.450;2022-10-16T22:38:19;11.07;;;6.85;;
21814;SDS011;11069;48.988;8.450;2022-10-16T22:40:45;16.25;;;7.00;;
21814;SDS011;11069;48.988;8.450;2022-10-16T22:43:11;13.23;;;7.15;;
21814;SDS011;11069;48.988;8.450;2022-10-16T22:45:36;12.48;;;7.03;;
21814;SDS011;11069;48.988;8.450;2022-10-16T22:48:02;12.02;;;7.20;;
21814;SDS011;11069;48.988;8.450;2022-10-16T22:50:29;16.88;;;7.60;;
21814;SDS011;11069;48.988;8.450;2022-10-16T22:52:55;18.23;;;7.43;;
21814;SDS011;11069;48.988;8.450;2022-10-16T22:55:21;18.65;;;7.50;;
21814;SDS011;11069;48.988;8.450;2022-10-16T22:57:47;13.52;;;6.88;;
21814;SDS011;11069;48.988;8.450;2022-10-16T23:00:14;15.98;;;7.65;;
21814;SDS011;11069;48.988;8.450;2022-10-16T23:02:42;14.45;;;6.75;;
21814;SDS011;11069;48.988;8.450;2022-10-16T23:05:08;14.65;;;7.05;;
21814;SDS011;11069;48.988;8.450;2022-10-16T23:07:34;13.75;;;8.07;;
21814;SDS011;11069;48.988;8.450;2022-10-16T23:10:01;15.90;;;8.02;;
21814;SDS011;11069;48.988;8.450;2022-10-16T23:12:27;17.40;;;8.45;;
21814;SDS011;11069;48.988;8.450;2022-10-16T23:14:55;9.27;;;7.50;;
21814;SDS011;11069;48.988;8.450;2022-10-16T23:17:24;14.07;;;8.45;;
21814;SDS011;11069;48.988;8.450;2022-10-16T23:19:50;17.17;;;7.68;;
21814;SDS011;11069;48.988;8.450;2022-10-16T23:22:15;16.77;;;7.47;;
21814;SDS011;11069;48.988;8.450;2022-10-16T23:24:41;10.68;;;7.00;;
21814;SDS011;11069;48.988;8.450;2022-10-16T23:27:06;14.68;;;7.00;;
21814;SDS011;11069;48.988;8.450;2022-10-16T23:29:32;17.17;;;7.07;;
21814;SDS011;11069;48.988;8.450;2022-10-16T23:31:57;11.80;;;6.90;;
21814;SDS011;11069;48.988;8.450;2022-10-16T23:34:23;11.95;;;7.03;;
21814;SDS011;11069;48.988;8.450;2022-10-16T23:36:49;15.90;;;6.63;;
21814;SDS011;11069;48.988;8.450;2022-10-16T23:39:15;10.57;;;7.07;;
21814;SDS011;11069;48.988;8.450;2022-10-16T23:41:41;12.75;;;7.20;;
21814;SDS011;11069;48.988;8.450;2022-10-16T23:44:06;10.85;;;6.85;;
21814;SDS011;11069;48.988;8.450;2022-10-16T23:46:35;17.80;;;7.13;;
21814;SDS011;11069;48.988;8.450;2022-10-16T23:49:03;11.55;;;7.63;;
21814;SDS011;11069;48.988;8.450;2022-10-16T23:51:32;17.50;;;7.72;;
21814;SDS011;11069;48.988;8.450;2022-10-16T23:53:58;15.30;;;6.95;;
21814;SDS011;11069;48.988;8.450;2022-10-16T23:56:23;10.25;;;6.38;;
21814;SDS011;11069;48.988;8.450;2022-10-16T23:58:49;9.48;;;6.93;;
